sensor_id;sensor_type;location;lat;lon;timestamp;temperature;humidity
37788;DHT22;23627;53.302;-6.362;2022-10-16T00:27:34;9.30;99.90
37788;DHT22;23627;53.302;-6.362;2022-10-16T00:30:00;9.30;99.90
37788;DHT22;23627;53.302;-6.362;2022-10-16T00:32:26;9.30;99.90
37788;DHT22;23627;53.302;-6.362;2022-10-16T00:34:52;9.30;99.90
37788;DHT22;23627;53.302;-6.362;2022-10-16T00:37:20;9.30;99.90
37788;DHT22;23627;53.302;-6.362;2022-10-16T00:39:46;9.20;99.90
37788;DHT22;23627;53.302;-6.362;2022-10-16T00:42:17;9.30;99.90
37788;DHT22;23627;53.302;-6.362;2022-10-16T00:44:56;9.20;99.90
37788;DHT22;23627;53.302;-6.362;2022-10-16T00:50:08;9.20;99.90
37788;DHT22;23627;53.302;-6.362;2022-10-16T00:52:35;9.20;99.90
37788;DHT22;23627;53.302;-6.362;2022-10-16T00:55:03;9.20;99.90
37788;DHT22;23627;53.302;-6.362;2022-10-16T00:57:30;9.30;99.90
37788;DHT22;23627;53.302;-6.362;2022-10-16T00:59:57;9.30;99.90
37788;DHT22;23627;53.302;-6.362;2022-10-16T01:02:23;9.30;99.90
37788;DHT22;23627;53.302;-6.362;2022-10-16T01:04:53;9.20;99.90
37788;DHT22;23627;53.302;-6.362;2022-10-16T01:10:14;9.20;99.90
37788;DHT22;23627;53.302;-6.362;2022-10-16T01:15:25;9.10;99.90
37788;DHT22;23627;53.302;-6.362;2022-10-16T01:20:40;9.20;99.90
37788;DHT22;23627;53.302;-6.362;2022-10-16T02:40:29;8.80;99.90
37788;DHT22;23627;53.302;-6.362;2022-10-16T03:26:59;8.60;99.90
37788;DHT22;23627;53.302;-6.362;2022-10-16T03:29:24;8.60;99.90
37788;DHT22;23627;53.302;-6.362;2022-10-16T03:31:51;8.50;99.90
37788;DHT22;23627;53.302;-6.362;2022-10-16T03:34:17;8.40;99.90
37788;DHT22;23627;53.302;-6.362;2022-10-16T03:36:42;8.40;99.90
37788;DHT22;23627;53.302;-6.362;2022-10-16T03:39:08;8.40;99.90
37788;DHT22;23627;53.302;-6.362;2022-10-16T03:41:34;8.40;99.90
37788;DHT22;23627;53.302;-6.362;2022-10-16T03:44:00;8.40;99.90
37788;DHT22;23627;53.302;-6.362;2022-10-16T03:46:25;8.30;99.90
37788;DHT22;23627;53.302;-6.362;2022-10-16T03:48:51;8.30;99.90
37788;DHT22;23627;53.302;-6.362;2022-10-16T03:51:17;8.30;99.90
37788;DHT22;23627;53.302;-6.362;2022-10-16T03:53:42;8.30;99.90
37788;DHT22;23627;53.302;-6.362;2022-10-16T03:56:08;8.30;99.90
37788;DHT22;23627;53.302;-6.362;2022-10-16T03:58:34;8.30;99.90
37788;DHT22;23627;53.302;-6.362;2022-10-16T04:00:59;8.30;99.90
37788;DHT22;23627;53.302;-6.362;2022-10-16T04:03:25;8.30;99.90
37788;DHT22;23627;53.302;-6.362;2022-10-16T04:05:51;8.30;99.90
37788;DHT22;23627;53.302;-6.362;2022-10-16T04:08:17;8.30;99.90
37788;DHT22;23627;53.302;-6.362;2022-10-16T04:10:43;8.20;99.90
37788;DHT22;23627;53.302;-6.362;2022-10-16T04:13:10;8.20;99.90
37788;DHT22;23627;53.302;-6.362;2022-10-16T04:15:35;8.20;99.90
37788;DHT22;23627;53.302;-6.362;2022-10-16T04:18:01;8.20;99.90
37788;DHT22;23627;53.302;-6.362;2022-10-16T04:20:27;8.40;99.90
37788;DHT22;23627;53.302;-6.362;2022-10-16T04:22:53;8.40;99.90
37788;DHT22;23627;53.302;-6.362;2022-10-16T04:25:18;8.40;99.90
37788;DHT22;23627;53.302;-6.362;2022-10-16T04:27:44;8.40;99.90
37788;DHT22;23627;53.302;-6.362;2022-10-16T04:30:10;8.30;99.90
37788;DHT22;23627;53.302;-6.362;2022-10-16T04:32:36;8.30;99.90
37788;DHT22;23627;53.302;-6.362;2022-10-16T04:35:02;8.20;99.90
37788;DHT22;23627;53.302;-6.362;2022-10-16T04:37:28;8.30;99.90
37788;DHT22;23627;53.302;-6.362;2022-10-16T04:39:54;8.30;99.90
37788;DHT22;23627;53.302;-6.362;2022-10-16T04:42:20;8.30;99.90
37788;DHT22;23627;53.302;-6.362;2022-10-16T04:44:46;8.30;99.90
37788;DHT22;23627;53.302;-6.362;2022-10-16T04:47:12;8.20;99.90
37788;DHT22;23627;53.302;-6.362;2022-10-16T04:49:38;8.30;99.90
37788;DHT22;23627;53.302;-6.362;2022-10-16T04:52:04;8.30;99.90
37788;DHT22;23627;53.302;-6.362;2022-10-16T04:54:30;8.30;99.90
37788;DHT22;23627;53.302;-6.362;2022-10-16T04:56:56;8.30;99.90
37788;DHT22;23627;53.302;-6.362;2022-10-16T04:59:22;8.30;99.90
37788;DHT22;23627;53.302;-6.362;2022-10-16T05:01:49;8.30;99.90
37788;DHT22;23627;53.302;-6.362;2022-10-16T05:04:15;8.30;99.90
37788;DHT22;23627;53.302;-6.362;2022-10-16T05:06:41;8.30;99.90
37788;DHT22;23627;53.302;-6.362;2022-10-16T05:09:07;8.30;99.90
37788;DHT22;23627;53.302;-6.362;2022-10-16T05:11:34;8.30;99.90
37788;DHT22;23627;53.302;-6.362;2022-10-16T05:14:00;8.40;99.90
37788;DHT22;23627;53.302;-6.362;2022-10-16T05:16:26;8.40;99.90
37788;DHT22;23627;53.302;-6.362;2022-10-16T05:18:52;8.40;99.90
37788;DHT22;23627;53.302;-6.362;2022-10-16T05:21:19;8.50;99.90
37788;DHT22;23627;53.302;-6.362;2022-10-16T05:23:45;8.40;99.90
37788;DHT22;23627;53.302;-6.362;2022-10-16T05:26:10;8.50;99.90
37788;DHT22;23627;53.302;-6.362;2022-10-16T05:28:36;8.50;99.90
37788;DHT22;23627;53.302;-6.362;2022-10-16T05:31:06;8.50;99.90
37788;DHT22;23627;53.302;-6.362;2022-10-16T05:33:32;8.50;99.90
37788;DHT22;23627;53.302;-6.362;2022-10-16T05:36:06;8.60;99.90
37788;DHT22;23627;53.302;-6.362;2022-10-16T05:38:33;8.60;99.90
37788;DHT22;23627;53.302;-6.362;2022-10-16T05:40:59;8.50;99.90
37788;DHT22;23627;53.302;-6.362;2022-10-16T05:43:27;8.50;99.90
37788;DHT22;23627;53.302;-6.362;2022-10-16T05:45:57;8.50;99.90
37788;DHT22;23627;53.302;-6.362;2022-10-16T05:48:24;8.40;99.90
37788;DHT22;23627;53.302;-6.362;2022-10-16T05:50:59;8.40;99.90
37788;DHT22;23627;53.302;-6.362;2022-10-16T05:53:27;8.30;99.90
37788;DHT22;23627;53.302;-6.362;2022-10-16T05:55:54;8.40;99.90
37788;DHT22;23627;53.302;-6.362;2022-10-16T05:58:20;8.40;99.90
37788;DHT22;23627;53.302;-6.362;2022-10-16T06:01:12;8.50;99.90
37788;DHT22;23627;53.302;-6.362;2022-10-16T06:03:39;8.50;99.90
37788;DHT22;23627;53.302;-6.362;2022-10-16T06:06:15;8.60;99.90
37788;DHT22;23627;53.302;-6.362;2022-10-16T06:08:42;8.60;99.90
37788;DHT22;23627;53.302;-6.362;2022-10-16T06:11:11;8.60;99.90
37788;DHT22;23627;53.302;-6.362;2022-10-16T06:13:37;8.60;99.90
37788;DHT22;23627;53.302;-6.362;2022-10-16T06:16:04;8.70;99.90
37788;DHT22;23627;53.302;-6.362;2022-10-16T06:18:30;8.70;99.90
37788;DHT22;23627;53.302;-6.362;2022-10-16T06:20:57;8.70;99.90
37788;DHT22;23627;53.302;-6.362;2022-10-16T06:23:23;8.60;99.90
37788;DHT22;23627;53.302;-6.362;2022-10-16T06:25:49;8.60;99.90
37788;DHT22;23627;53.302;-6.362;2022-10-16T06:28:15;8.60;99.90
37788;DHT22;23627;53.302;-6.362;2022-10-16T06:30:42;8.50;99.90
37788;DHT22;23627;53.302;-6.362;2022-10-16T06:33:10;8.60;99.90
37788;DHT22;23627;53.302;-6.362;2022-10-16T06:35:36;8.60;99.90
37788;DHT22;23627;53.302;-6.362;2022-10-16T06:38:01;8.60;99.90
37788;DHT22;23627;53.302;-6.362;2022-10-16T06:40:27;8.60;99.90
37788;DHT22;23627;53.302;-6.362;2022-10-16T06:42:55;8.60;99.90
37788;DHT22;23627;53.302;-6.362;2022-10-16T06:45:21;8.60;99.90
37788;DHT22;23627;53.302;-6.362;2022-10-16T06:47:46;8.60;99.90
37788;DHT22;23627;53.302;-6.362;2022-10-16T06:50:12;8.60;99.90
37788;DHT22;23627;53.302;-6.362;2022-10-16T06:52:38;8.50;99.90
37788;DHT22;23627;53.302;-6.362;2022-10-16T06:55:06;8.70;99.90
37788;DHT22;23627;53.302;-6.362;2022-10-16T06:57:32;8.70;99.90
37788;DHT22;23627;53.302;-6.362;2022-10-16T06:59:58;8.70;99.90
37788;DHT22;23627;53.302;-6.362;2022-10-16T07:02:26;8.70;99.90
37788;DHT22;23627;53.302;-6.362;2022-10-16T07:04:52;8.70;99.90
37788;DHT22;23627;53.302;-6.362;2022-10-16T07:07:17;8.70;99.90
37788;DHT22;23627;53.302;-6.362;2022-10-16T07:09:43;8.60;99.90
37788;DHT22;23627;53.302;-6.362;2022-10-16T07:12:09;8.50;99.90
37788;DHT22;23627;53.302;-6.362;2022-10-16T07:14:34;8.50;99.90
37788;DHT22;23627;53.302;-6.362;2022-10-16T07:17:00;8.50;99.90
37788;DHT22;23627;53.302;-6.362;2022-10-16T07:19:26;8.50;99.90
37788;DHT22;23627;53.302;-6.362;2022-10-16T07:21:51;8.40;99.90
37788;DHT22;23627;53.302;-6.362;2022-10-16T07:29:49;8.30;99.90
37788;DHT22;23627;53.302;-6.362;2022-10-16T07:32:15;8.20;99.90
37788;DHT22;23627;53.302;-6.362;2022-10-16T08:03:17;8.40;99.90
37788;DHT22;23627;53.302;-6.362;2022-10-16T08:05:59;8.50;99.90
37788;DHT22;23627;53.302;-6.362;2022-10-16T08:08:28;8.60;99.90
37788;DHT22;23627;53.302;-6.362;2022-10-16T08:10:54;8.60;99.90
37788;DHT22;23627;53.302;-6.362;2022-10-16T08:13:20;8.70;99.90
37788;DHT22;23627;53.302;-6.362;2022-10-16T08:15:46;8.70;99.90
37788;DHT22;23627;53.302;-6.362;2022-10-16T08:18:13;8.70;99.90
37788;DHT22;23627;53.302;-6.362;2022-10-16T08:20:40;8.70;99.90
37788;DHT22;23627;53.302;-6.362;2022-10-16T08:23:06;8.80;99.90
37788;DHT22;23627;53.302;-6.362;2022-10-16T08:25:35;8.80;99.90
37788;DHT22;23627;53.302;-6.362;2022-10-16T08:28:06;8.80;99.90
37788;DHT22;23627;53.302;-6.362;2022-10-16T08:30:33;8.80;99.90
37788;DHT22;23627;53.302;-6.362;2022-10-16T08:32:59;8.90;99.90
37788;DHT22;23627;53.302;-6.362;2022-10-16T08:35:25;8.90;99.90
37788;DHT22;23627;53.302;-6.362;2022-10-16T08:37:50;8.90;99.90
37788;DHT22;23627;53.302;-6.362;2022-10-16T08:40:23;9.00;99.90
37788;DHT22;23627;53.302;-6.362;2022-10-16T08:50:50;9.30;99.90
37788;DHT22;23627;53.302;-6.362;2022-10-16T08:53:31;9.40;99.90
37788;DHT22;23627;53.302;-6.362;2022-10-16T08:55:59;9.40;99.90
37788;DHT22;23627;53.302;-6.362;2022-10-16T08:58:29;9.40;99.90
37788;DHT22;23627;53.302;-6.362;2022-10-16T09:01:01;9.50;99.90
37788;DHT22;23627;53.302;-6.362;2022-10-16T09:11:54;9.70;99.90
37788;DHT22;23627;53.302;-6.362;2022-10-16T09:20:03;9.90;99.90
37788;DHT22;23627;53.302;-6.362;2022-10-16T09:22:34;10.00;99.90
37788;DHT22;23627;53.302;-6.362;2022-10-16T09:25:00;10.00;99.90
37788;DHT22;23627;53.302;-6.362;2022-10-16T09:27:35;10.00;99.90
37788;DHT22;23627;53.302;-6.362;2022-10-16T09:30:06;10.10;99.90
37788;DHT22;23627;53.302;-6.362;2022-10-16T09:32:35;10.10;99.90
37788;DHT22;23627;53.302;-6.362;2022-10-16T09:35:03;10.10;99.90
37788;DHT22;23627;53.302;-6.362;2022-10-16T09:37:29;10.10;99.90
37788;DHT22;23627;53.302;-6.362;2022-10-16T09:39:56;10.10;99.90
37788;DHT22;23627;53.302;-6.362;2022-10-16T09:42:27;10.20;99.90
37788;DHT22;23627;53.302;-6.362;2022-10-16T09:44:54;10.20;99.90
37788;DHT22;23627;53.302;-6.362;2022-10-16T09:47:21;10.20;99.90
37788;DHT22;23627;53.302;-6.362;2022-10-16T09:50:00;10.30;99.90
37788;DHT22;23627;53.302;-6.362;2022-10-16T09:52:31;10.30;99.90
37788;DHT22;23627;53.302;-6.362;2022-10-16T09:55:09;10.40;99.90
37788;DHT22;23627;53.302;-6.362;2022-10-16T09:57:47;10.40;99.90
37788;DHT22;23627;53.302;-6.362;2022-10-16T10:00:16;10.50;99.90
37788;DHT22;23627;53.302;-6.362;2022-10-16T10:02:43;10.60;99.90
37788;DHT22;23627;53.302;-6.362;2022-10-16T10:05:21;10.60;99.90
37788;DHT22;23627;53.302;-6.362;2022-10-16T10:08:00;10.60;99.90
37788;DHT22;23627;53.302;-6.362;2022-10-16T10:10:33;10.70;99.90
37788;DHT22;23627;53.302;-6.362;2022-10-16T10:13:00;10.70;99.90
37788;DHT22;23627;53.302;-6.362;2022-10-16T10:15:28;10.80;99.90
37788;DHT22;23627;53.302;-6.362;2022-10-16T10:17:56;10.80;99.90
37788;DHT22;23627;53.302;-6.362;2022-10-16T10:20:28;10.80;99.90
37788;DHT22;23627;53.302;-6.362;2022-10-16T10:22:55;10.80;99.90
37788;DHT22;23627;53.302;-6.362;2022-10-16T10:25:49;10.90;99.90
37788;DHT22;23627;53.302;-6.362;2022-10-16T10:28:29;10.90;99.90
37788;DHT22;23627;53.302;-6.362;2022-10-16T10:38:58;11.00;99.90
37788;DHT22;23627;53.302;-6.362;2022-10-16T11:00:03;11.30;99.90
37788;DHT22;23627;53.302;-6.362;2022-10-16T11:08:09;11.40;99.90
37788;DHT22;23627;53.302;-6.362;2022-10-16T11:10:57;11.40;99.90
37788;DHT22;23627;53.302;-6.362;2022-10-16T11:16:30;11.40;99.90
37788;DHT22;23627;53.302;-6.362;2022-10-16T11:19:08;11.40;99.90
37788;DHT22;23627;53.302;-6.362;2022-10-16T11:21:44;11.40;99.90
37788;DHT22;23627;53.302;-6.362;2022-10-16T11:24:39;11.30;99.90
37788;DHT22;23627;53.302;-6.362;2022-10-16T11:27:09;11.40;99.90
37788;DHT22;23627;53.302;-6.362;2022-10-16T11:29:49;11.40;99.90
37788;DHT22;23627;53.302;-6.362;2022-10-16T11:32:26;11.40;99.90
37788;DHT22;23627;53.302;-6.362;2022-10-16T11:34:59;11.40;99.90
37788;DHT22;23627;53.302;-6.362;2022-10-16T11:37:40;11.50;99.90
37788;DHT22;23627;53.302;-6.362;2022-10-16T11:40:29;11.50;99.90
37788;DHT22;23627;53.302;-6.362;2022-10-16T11:43:13;11.50;99.90
37788;DHT22;23627;53.302;-6.362;2022-10-16T11:45:46;11.50;99.90
37788;DHT22;23627;53.302;-6.362;2022-10-16T11:51:32;11.40;99.90
37788;DHT22;23627;53.302;-6.362;2022-10-16T11:54:00;11.40;99.90
37788;DHT22;23627;53.302;-6.362;2022-10-16T11:56:28;11.40;99.90
37788;DHT22;23627;53.302;-6.362;2022-10-16T11:59:13;11.40;99.90
37788;DHT22;23627;53.302;-6.362;2022-10-16T12:02:07;11.40;99.90
37788;DHT22;23627;53.302;-6.362;2022-10-16T12:04:43;11.40;99.90
37788;DHT22;23627;53.302;-6.362;2022-10-16T12:07:19;11.50;99.90
37788;DHT22;23627;53.302;-6.362;2022-10-16T12:09:47;11.40;99.90
37788;DHT22;23627;53.302;-6.362;2022-10-16T12:15:02;11.40;99.90
37788;DHT22;23627;53.302;-6.362;2022-10-16T12:17:37;11.40;99.90
37788;DHT22;23627;53.302;-6.362;2022-10-16T12:20:24;11.40;99.90
37788;DHT22;23627;53.302;-6.362;2022-10-16T12:22:57;11.30;99.90
37788;DHT22;23627;53.302;-6.362;2022-10-16T12:25:39;11.30;99.90
37788;DHT22;23627;53.302;-6.362;2022-10-16T12:28:17;11.30;99.90
37788;DHT22;23627;53.302;-6.362;2022-10-16T12:41:41;11.40;99.90
37788;DHT22;23627;53.302;-6.362;2022-10-16T12:44:23;11.40;99.90
37788;DHT22;23627;53.302;-6.362;2022-10-16T13:02:16;11.40;99.90
37788;DHT22;23627;53.302;-6.362;2022-10-16T14:18:31;11.10;99.90
37788;DHT22;23627;53.302;-6.362;2022-10-16T14:21:28;11.10;99.90
37788;DHT22;23627;53.302;-6.362;2022-10-16T14:37:52;10.90;99.90
37788;DHT22;23627;53.302;-6.362;2022-10-16T15:35:21;11.10;99.90
37788;DHT22;23627;53.302;-6.362;2022-10-16T15:37:48;11.20;99.90
37788;DHT22;23627;53.302;-6.362;2022-10-16T15:40:19;11.20;99.90
37788;DHT22;23627;53.302;-6.362;2022-10-16T15:42:51;11.20;99.90
37788;DHT22;23627;53.302;-6.362;2022-10-16T15:45:24;11.20;99.90
37788;DHT22;23627;53.302;-6.362;2022-10-16T15:48:00;11.20;99.90
37788;DHT22;23627;53.302;-6.362;2022-10-16T15:53:44;11.20;99.90
37788;DHT22;23627;53.302;-6.362;2022-10-16T15:56:15;11.20;99.90
37788;DHT22;23627;53.302;-6.362;2022-10-16T16:02:03;11.10;99.90
37788;DHT22;23627;53.302;-6.362;2022-10-16T16:04:30;11.10;99.90
37788;DHT22;23627;53.302;-6.362;2022-10-16T16:06:56;11.00;99.90
37788;DHT22;23627;53.302;-6.362;2022-10-16T16:09:22;11.00;99.90
37788;DHT22;23627;53.302;-6.362;2022-10-16T16:11:49;11.00;99.90
37788;DHT22;23627;53.302;-6.362;2022-10-16T16:14:30;10.90;99.90
37788;DHT22;23627;53.302;-6.362;2022-10-16T16:16:57;10.90;99.90
37788;DHT22;23627;53.302;-6.362;2022-10-16T16:19:23;10.90;99.90
37788;DHT22;23627;53.302;-6.362;2022-10-16T16:21:49;10.90;99.90
37788;DHT22;23627;53.302;-6.362;2022-10-16T16:24:16;10.90;99.90
37788;DHT22;23627;53.302;-6.362;2022-10-16T16:26:41;10.90;99.90
37788;DHT22;23627;53.302;-6.362;2022-10-16T16:29:15;10.90;99.90
37788;DHT22;23627;53.302;-6.362;2022-10-16T16:31:42;10.80;99.90
37788;DHT22;23627;53.302;-6.362;2022-10-16T16:34:08;10.80;99.90
37788;DHT22;23627;53.302;-6.362;2022-10-16T16:36:35;10.90;99.90
37788;DHT22;23627;53.302;-6.362;2022-10-16T16:39:01;10.90;99.90
37788;DHT22;23627;53.302;-6.362;2022-10-16T16:41:29;10.80;99.90
37788;DHT22;23627;53.302;-6.362;2022-10-16T16:44:00;10.80;99.90
37788;DHT22;23627;53.302;-6.362;2022-10-16T16:46:26;10.80;99.90
37788;DHT22;23627;53.302;-6.362;2022-10-16T16:48:52;10.80;99.90
37788;DHT22;23627;53.302;-6.362;2022-10-16T16:51:21;10.90;99.90
37788;DHT22;23627;53.302;-6.362;2022-10-16T16:53:49;10.90;99.90
37788;DHT22;23627;53.302;-6.362;2022-10-16T16:56:15;10.90;99.90
37788;DHT22;23627;53.302;-6.362;2022-10-16T16:58:41;10.90;99.90
37788;DHT22;23627;53.302;-6.362;2022-10-16T17:01:09;10.90;99.90
37788;DHT22;23627;53.302;-6.362;2022-10-16T17:03:35;10.90;99.90
37788;DHT22;23627;53.302;-6.362;2022-10-16T17:06:04;10.90;99.90
37788;DHT22;23627;53.302;-6.362;2022-10-16T17:08:31;10.90;99.90
37788;DHT22;23627;53.302;-6.362;2022-10-16T17:10:57;10.90;99.90
37788;DHT22;23627;53.302;-6.362;2022-10-16T17:13:24;10.90;99.90
37788;DHT22;23627;53.302;-6.362;2022-10-16T17:15:51;10.80;99.90
37788;DHT22;23627;53.302;-6.362;2022-10-16T17:18:21;10.90;99.90
37788;DHT22;23627;53.302;-6.362;2022-10-16T17:20:47;10.90;99.90
37788;DHT22;23627;53.302;-6.362;2022-10-16T17:23:16;10.90;99.90
37788;DHT22;23627;53.302;-6.362;2022-10-16T17:25:42;10.90;99.90
37788;DHT22;23627;53.302;-6.362;2022-10-16T17:28:09;10.90;99.90
37788;DHT22;23627;53.302;-6.362;2022-10-16T17:30:39;10.90;99.90
37788;DHT22;23627;53.302;-6.362;2022-10-16T17:33:06;10.90;99.90
37788;DHT22;23627;53.302;-6.362;2022-10-16T17:35:45;10.90;99.90
37788;DHT22;23627;53.302;-6.362;2022-10-16T17:38:13;10.90;99.90
37788;DHT22;23627;53.302;-6.362;2022-10-16T17:40:40;10.90;99.90
37788;DHT22;23627;53.302;-6.362;2022-10-16T17:43:26;10.90;99.90
37788;DHT22;23627;53.302;-6.362;2022-10-16T18:02:03;11.00;99.90
37788;DHT22;23627;53.302;-6.362;2022-10-16T18:14:50;11.10;99.90
37788;DHT22;23627;53.302;-6.362;2022-10-16T18:17:20;11.10;99.90
37788;DHT22;23627;53.302;-6.362;2022-10-16T18:19:52;11.10;99.90
37788;DHT22;23627;53.302;-6.362;2022-10-16T18:22:19;11.10;99.90
37788;DHT22;23627;53.302;-6.362;2022-10-16T18:24:46;11.20;99.90
37788;DHT22;23627;53.302;-6.362;2022-10-16T18:27:16;11.20;99.90
37788;DHT22;23627;53.302;-6.362;2022-10-16T18:29:42;11.20;99.90
37788;DHT22;23627;53.302;-6.362;2022-10-16T18:32:07;11.20;99.90
37788;DHT22;23627;53.302;-6.362;2022-10-16T18:34:36;11.20;99.90
37788;DHT22;23627;53.302;-6.362;2022-10-16T18:37:10;11.30;99.90
37788;DHT22;23627;53.302;-6.362;2022-10-16T18:39:38;11.30;99.90
37788;DHT22;23627;53.302;-6.362;2022-10-16T18:42:15;11.40;99.90
37788;DHT22;23627;53.302;-6.362;2022-10-16T18:44:56;11.50;99.90
37788;DHT22;23627;53.302;-6.362;2022-10-16T18:47:29;11.50;99.90
37788;DHT22;23627;53.302;-6.362;2022-10-16T18:49:55;11.60;99.90
37788;DHT22;23627;53.302;-6.362;2022-10-16T18:52:30;11.60;99.90
37788;DHT22;23627;53.302;-6.362;2022-10-16T19:08:59;11.70;99.90
37788;DHT22;23627;53.302;-6.362;2022-10-16T19:11:25;11.80;99.90
37788;DHT22;23627;53.302;-6.362;2022-10-16T19:13:51;11.80;99.90
37788;DHT22;23627;53.302;-6.362;2022-10-16T19:16:22;11.90;99.90
37788;DHT22;23627;53.302;-6.362;2022-10-16T19:18:49;11.90;99.90
37788;DHT22;23627;53.302;-6.362;2022-10-16T19:21:16;11.90;99.90
37788;DHT22;23627;53.302;-6.362;2022-10-16T19:23:43;11.90;99.90
37788;DHT22;23627;53.302;-6.362;2022-10-16T19:26:11;11.90;99.90
37788;DHT22;23627;53.302;-6.362;2022-10-16T19:28:38;11.90;99.90
37788;DHT22;23627;53.302;-6.362;2022-10-16T19:31:07;11.90;99.90
37788;DHT22;23627;53.302;-6.362;2022-10-16T19:33:33;11.90;99.90
37788;DHT22;23627;53.302;-6.362;2022-10-16T19:38:35;11.90;99.90
37788;DHT22;23627;53.302;-6.362;2022-10-16T19:41:09;11.80;99.90
37788;DHT22;23627;53.302;-6.362;2022-10-16T19:43:35;11.80;99.90
37788;DHT22;23627;53.302;-6.362;2022-10-16T19:46:06;11.80;99.90
37788;DHT22;23627;53.302;-6.362;2022-10-16T19:48:33;11.80;99.90
37788;DHT22;23627;53.302;-6.362;2022-10-16T19:51:01;11.80;99.90
37788;DHT22;23627;53.302;-6.362;2022-10-16T19:53:27;11.90;99.90
37788;DHT22;23627;53.302;-6.362;2022-10-16T19:55:54;11.90;99.90
37788;DHT22;23627;53.302;-6.362;2022-10-16T19:58:20;11.90;99.90
37788;DHT22;23627;53.302;-6.362;2022-10-16T20:00:46;12.00;99.90
37788;DHT22;23627;53.302;-6.362;2022-10-16T20:03:13;12.00;99.90
37788;DHT22;23627;53.302;-6.362;2022-10-16T20:05:50;12.00;99.90
37788;DHT22;23627;53.302;-6.362;2022-10-16T20:08:16;12.00;99.90
37788;DHT22;23627;53.302;-6.362;2022-10-16T20:10:55;12.00;99.90
37788;DHT22;23627;53.302;-6.362;2022-10-16T20:13:21;12.00;99.90
37788;DHT22;23627;53.302;-6.362;2022-10-16T20:15:50;12.00;99.90
37788;DHT22;23627;53.302;-6.362;2022-10-16T20:18:17;12.00;99.90
37788;DHT22;23627;53.302;-6.362;2022-10-16T20:20:49;12.00;99.90
37788;DHT22;23627;53.302;-6.362;2022-10-16T20:23:20;12.00;99.90
37788;DHT22;23627;53.302;-6.362;2022-10-16T20:25:49;12.00;99.90
37788;DHT22;23627;53.302;-6.362;2022-10-16T20:28:20;12.00;99.90
37788;DHT22;23627;53.302;-6.362;2022-10-16T20:30:49;12.10;99.90
37788;DHT22;23627;53.302;-6.362;2022-10-16T20:33:15;12.10;99.90
37788;DHT22;23627;53.302;-6.362;2022-10-16T20:35:43;12.10;99.90
37788;DHT22;23627;53.302;-6.362;2022-10-16T20:38:10;12.20;99.90
37788;DHT22;23627;53.302;-6.362;2022-10-16T20:40:38;12.20;99.90
37788;DHT22;23627;53.302;-6.362;2022-10-16T20:43:05;12.20;99.90
37788;DHT22;23627;53.302;-6.362;2022-10-16T20:45:31;12.20;99.90
37788;DHT22;23627;53.302;-6.362;2022-10-16T20:47:57;12.10;99.90
37788;DHT22;23627;53.302;-6.362;2022-10-16T20:50:27;12.10;99.90
37788;DHT22;23627;53.302;-6.362;2022-10-16T20:52:53;12.10;99.90
37788;DHT22;23627;53.302;-6.362;2022-10-16T20:55:19;12.20;99.90
37788;DHT22;23627;53.302;-6.362;2022-10-16T20:57:44;12.20;99.90
37788;DHT22;23627;53.302;-6.362;2022-10-16T21:00:11;12.20;99.90
37788;DHT22;23627;53.302;-6.362;2022-10-16T21:02:37;12.20;99.90
37788;DHT22;23627;53.302;-6.362;2022-10-16T21:05:03;12.20;99.90
37788;DHT22;23627;53.302;-6.362;2022-10-16T21:07:29;12.20;99.90
37788;DHT22;23627;53.302;-6.362;2022-10-16T21:09:55;12.20;99.90
37788;DHT22;23627;53.302;-6.362;2022-10-16T21:12:26;12.10;99.90
37788;DHT22;23627;53.302;-6.362;2022-10-16T21:14:52;12.10;99.90
37788;DHT22;23627;53.302;-6.362;2022-10-16T21:17:18;12.10;99.90
37788;DHT22;23627;53.302;-6.362;2022-10-16T21:19:44;12.10;99.90
37788;DHT22;23627;53.302;-6.362;2022-10-16T21:22:10;12.10;99.90
37788;DHT22;23627;53.302;-6.362;2022-10-16T21:24:36;12.10;99.90
37788;DHT22;23627;53.302;-6.362;2022-10-16T21:27:07;12.10;99.90
37788;DHT22;23627;53.302;-6.362;2022-10-16T21:29:33;12.20;99.90
37788;DHT22;23627;53.302;-6.362;2022-10-16T21:31:59;12.20;99.90
37788;DHT22;23627;53.302;-6.362;2022-10-16T21:34:25;12.20;99.90
37788;DHT22;23627;53.302;-6.362;2022-10-16T21:36:51;12.20;99.90
37788;DHT22;23627;53.302;-6.362;2022-10-16T21:39:18;12.30;99.90
37788;DHT22;23627;53.302;-6.362;2022-10-16T21:41:46;12.30;99.90
37788;DHT22;23627;53.302;-6.362;2022-10-16T21:44:13;12.20;99.90
37788;DHT22;23627;53.302;-6.362;2022-10-16T21:46:42;12.20;99.90
37788;DHT22;23627;53.302;-6.362;2022-10-16T21:49:15;12.20;99.90
37788;DHT22;23627;53.302;-6.362;2022-10-16T21:51:44;12.20;99.90
37788;DHT22;23627;53.302;-6.362;2022-10-16T21:54:14;12.10;99.90
37788;DHT22;23627;53.302;-6.362;2022-10-16T21:56:40;12.10;99.90
37788;DHT22;23627;53.302;-6.362;2022-10-16T21:59:26;12.10;99.90
37788;DHT22;23627;53.302;-6.362;2022-10-16T22:02:12;12.10;99.90
37788;DHT22;23627;53.302;-6.362;2022-10-16T22:04:37;12.10;99.90
37788;DHT22;23627;53.302;-6.362;2022-10-16T22:07:03;12.10;99.90
37788;DHT22;23627;53.302;-6.362;2022-10-16T22:09:29;12.10;99.90
37788;DHT22;23627;53.302;-6.362;2022-10-16T22:11:55;12.10;99.90
37788;DHT22;23627;53.302;-6.362;2022-10-16T22:14:20;12.10;99.90
37788;DHT22;23627;53.302;-6.362;2022-10-16T22:16:47;12.00;99.90
37788;DHT22;23627;53.302;-6.362;2022-10-16T22:19:15;12.10;99.90
37788;DHT22;23627;53.302;-6.362;2022-10-16T22:21:42;12.10;99.90
37788;DHT22;23627;53.302;-6.362;2022-10-16T22:24:08;12.00;99.90
37788;DHT22;23627;53.302;-6.362;2022-10-16T22:26:35;12.10;99.90
37788;DHT22;23627;53.302;-6.362;2022-10-16T22:29:01;12.00;99.90
37788;DHT22;23627;53.302;-6.362;2022-10-16T22:31:27;12.00;99.90
37788;DHT22;23627;53.302;-6.362;2022-10-16T22:34:13;11.90;99.90
37788;DHT22;23627;53.302;-6.362;2022-10-16T22:36:52;12.00;99.90
37788;DHT22;23627;53.302;-6.362;2022-10-16T22:44:53;11.90;99.90
37788;DHT22;23627;53.302;-6.362;2022-10-16T22:47:18;11.80;99.90
37788;DHT22;23627;53.302;-6.362;2022-10-16T22:49:45;11.90;99.90
37788;DHT22;23627;53.302;-6.362;2022-10-16T22:52:14;11.90;99.90
37788;DHT22;23627;53.302;-6.362;2022-10-16T23:28:16;11.80;99.90
37788;DHT22;23627;53.302;-6.362;2022-10-16T23:30:42;11.80;99.90
37788;DHT22;23627;53.302;-6.362;2022-10-16T23:33:09;11.70;99.90
37788;DHT22;23627;53.302;-6.362;2022-10-16T23:35:38;11.80;99.90
37788;DHT22;23627;53.302;-6.362;2022-10-16T23:38:05;11.80;99.90
37788;DHT22;23627;53.302;-6.362;2022-10-16T23:40:30;11.70;99.90
37788;DHT22;23627;53.302;-6.362;2022-10-16T23:42:56;11.70;99.90
37788;DHT22;23627;53.302;-6.362;2022-10-16T23:45:22;11.80;99.90
37788;DHT22;23627;53.302;-6.362;2022-10-16T23:47:48;11.80;99.90
37788;DHT22;23627;53.302;-6.362;2022-10-16T23:50:13;11.80;99.90
37788;DHT22;23627;53.302;-6.362;2022-10-16T23:52:39;11.80;99.90
37788;DHT22;23627;53.302;-6.362;2022-10-16T23:55:05;11.80;99.90
37788;DHT22;23627;53.302;-6.362;2022-10-16T23:57:31;11.80;99.90
37788;DHT22;23627;53.302;-6.362;2022-10-16T23:59:57;11.80;99.90
